createdAt,value
2022-10-18T00:02:11.259Z,4.93
2022-10-18T00:04:38.289Z,4.98
2022-10-18T00:07:07.326Z,4.91
2022-10-18T00:09:34.515Z,5.14
2022-10-18T00:12:03.661Z,4.47
2022-10-18T00:14:31.850Z,4.26
2022-10-18T00:16:58.728Z,4.48
2022-10-18T00:19:28.487Z,4.15
2022-10-18T00:21:59.566Z,3.78
2022-10-18T00:24:26.327Z,3.87
2022-10-18T00:26:53.381Z,3.45
2022-10-18T00:29:20.759Z,3.30
2022-10-18T00:31:49.321Z,3.57
2022-10-18T00:34:17.761Z,3.48
2022-10-18T00:36:45.445Z,3.70
2022-10-18T00:39:19.114Z,3.40
2022-10-18T00:41:46.887Z,3.25
2022-10-18T00:44:51.338Z,3.19
2022-10-18T00:47:20.313Z,3.57
2022-10-18T00:49:51.557Z,3.83
2022-10-18T00:52:21.700Z,4.09
2022-10-18T00:54:51.182Z,3.81
2022-10-18T00:57:19.792Z,3.85
2022-10-18T00:59:47.429Z,3.28
2022-10-18T01:02:15.190Z,3.64
2022-10-18T01:04:44.134Z,3.94
2022-10-18T01:07:20.757Z,3.43
2022-10-18T01:09:59.906Z,3.35
2022-10-18T01:12:37.110Z,3.83
2022-10-18T01:15:10.872Z,4.10
2022-10-18T01:17:45.671Z,4.67
2022-10-18T01:20:38.106Z,4.98
2022-10-18T01:23:09.188Z,5.42
2022-10-18T01:25:43.311Z,5.69
2022-10-18T01:28:36.647Z,5.35
2022-10-18T01:31:10.555Z,4.95
2022-10-18T01:33:41.463Z,4.57
2022-10-18T01:36:15.619Z,4.63
2022-10-18T01:38:44.689Z,5.16
2022-10-18T01:41:15.840Z,5.07
2022-10-18T01:43:45.352Z,5.03
2022-10-18T01:46:19.222Z,5.26
2022-10-18T01:48:46.707Z,5.28
2022-10-18T01:51:15.992Z,4.96
2022-10-18T01:53:42.751Z,4.79
2022-10-18T01:56:25.379Z,5.01
2022-10-18T01:59:02.442Z,5.09
2022-10-18T02:01:38.611Z,5.43
2022-10-18T02:04:13.612Z,5.57
2022-10-18T02:06:45.864Z,5.29
2022-10-18T02:09:19.291Z,5.98
2022-10-18T02:11:48.804Z,5.36
2022-10-18T02:14:17.690Z,5.40
2022-10-18T02:16:50.637Z,5.17
2022-10-18T02:19:22.888Z,4.52
2022-10-18T02:21:53.330Z,4.15
2022-10-18T02:24:23.691Z,4.69
2022-10-18T02:26:50.629Z,4.74
2022-10-18T02:29:17.679Z,4.61
2022-10-18T02:31:49.414Z,4.87
2022-10-18T02:34:21.666Z,4.93
2022-10-18T02:36:51.427Z,4.33
2022-10-18T02:39:20.834Z,4.69
2022-10-18T02:41:47.655Z,4.83
2022-10-18T02:44:15.122Z,4.67
2022-10-18T02:46:42.238Z,4.30
2022-10-18T02:49:10.510Z,4.60
2022-10-18T02:51:37.632Z,4.90
2022-10-18T02:54:04.808Z,5.19
2022-10-18T02:56:31.915Z,5.04
2022-10-18T02:59:00.126Z,4.87
2022-10-18T03:01:27.144Z,5.07
2022-10-18T03:03:54.091Z,4.82
2022-10-18T03:06:22.239Z,4.51
2022-10-18T03:08:50.173Z,4.70
2022-10-18T03:11:17.003Z,4.81
2022-10-18T03:13:45.085Z,5.21
2022-10-18T03:16:12.247Z,4.87
2022-10-18T03:18:40.312Z,5.17
2022-10-18T03:21:08.051Z,5.12
2022-10-18T03:23:36.507Z,5.06
2022-10-18T03:26:03.853Z,4.69
2022-10-18T03:28:31.012Z,4.37
2022-10-18T03:31:00.525Z,4.99
2022-10-18T03:33:27.456Z,4.73
2022-10-18T03:35:54.403Z,4.42
2022-10-18T03:38:21.176Z,4.57
2022-10-18T03:40:51.534Z,4.01
2022-10-18T03:43:18.390Z,4.07
2022-10-18T03:45:45.545Z,3.92
2022-10-18T03:48:12.467Z,3.59
2022-10-18T03:50:39.379Z,3.44
2022-10-18T03:53:06.120Z,3.38
2022-10-18T03:55:33.055Z,4.05
2022-10-18T03:58:01.352Z,3.59
2022-10-18T04:00:28.347Z,3.37
2022-10-18T04:02:56.094Z,3.32
2022-10-18T04:05:23.469Z,3.18
2022-10-18T04:07:51.382Z,3.21
2022-10-18T04:10:18.112Z,3.56
2022-10-18T04:12:45.066Z,3.42
2022-10-18T04:15:13.667Z,3.25
2022-10-18T04:17:40.487Z,3.37
2022-10-18T04:20:08.131Z,2.96
2022-10-18T04:22:35.127Z,2.98
2022-10-18T04:25:01.974Z,3.24
2022-10-18T04:27:29.221Z,3.55
2022-10-18T04:29:56.152Z,3.88
2022-10-18T04:32:24.886Z,4.18
2022-10-18T04:34:51.603Z,5.04
2022-10-18T04:37:18.572Z,4.94
2022-10-18T04:39:47.480Z,4.84
2022-10-18T04:42:17.067Z,4.46
2022-10-18T04:44:44.092Z,4.16
2022-10-18T04:47:11.901Z,3.85
2022-10-18T04:49:40.308Z,3.82
2022-10-18T04:52:07.556Z,3.92
2022-10-18T04:54:34.862Z,4.53
2022-10-18T04:57:01.873Z,3.77
2022-10-18T04:59:29.871Z,4.09
2022-10-18T05:01:57.430Z,4.20
2022-10-18T05:04:25.385Z,3.84
2022-10-18T05:06:53.698Z,3.21
2022-10-18T05:09:20.826Z,3.29
2022-10-18T05:11:47.671Z,3.33
2022-10-18T05:14:14.604Z,3.49
2022-10-18T05:16:42.075Z,3.73
2022-10-18T05:19:09.934Z,3.44
2022-10-18T05:21:36.939Z,3.57
2022-10-18T05:24:08.619Z,3.42
2022-10-18T05:26:37.050Z,3.44
2022-10-18T05:29:05.064Z,3.60
2022-10-18T05:31:32.082Z,3.83
2022-10-18T05:33:58.966Z,3.73
2022-10-18T05:36:25.918Z,3.27
2022-10-18T05:38:52.998Z,3.25
2022-10-18T05:41:24.001Z,2.75
2022-10-18T05:43:51.150Z,2.88
2022-10-18T05:46:19.107Z,2.71
2022-10-18T05:48:50.200Z,2.63
2022-10-18T05:51:17.583Z,2.45
2022-10-18T05:53:44.404Z,2.58
2022-10-18T05:56:13.890Z,2.52
2022-10-18T05:58:43.199Z,2.31
2022-10-18T06:01:12.476Z,2.93
2022-10-18T06:03:45.844Z,3.50
2022-10-18T06:06:16.337Z,3.69
2022-10-18T06:08:44.429Z,3.25
2022-10-18T06:11:13.875Z,3.53
2022-10-18T06:13:46.318Z,3.77
2022-10-18T06:16:17.881Z,2.90
2022-10-18T06:18:48.102Z,2.83
2022-10-18T06:21:17.842Z,2.83
2022-10-18T06:23:50.701Z,2.23
2022-10-18T06:26:22.262Z,2.32
2022-10-18T06:28:51.516Z,1.97
2022-10-18T06:31:19.770Z,2.79
2022-10-18T06:33:47.120Z,2.74
2022-10-18T06:36:17.435Z,2.75
2022-10-18T06:38:45.011Z,2.83
2022-10-18T06:41:12.531Z,3.28
2022-10-18T06:43:39.538Z,2.87
2022-10-18T06:46:08.971Z,2.92
2022-10-18T06:48:38.919Z,2.15
2022-10-18T06:51:07.298Z,1.82
2022-10-18T06:53:40.737Z,1.38
2022-10-18T06:56:12.670Z,1.50
2022-10-18T06:58:40.157Z,1.27
2022-10-18T07:01:11.899Z,1.30
2022-10-18T07:03:39.861Z,1.25
2022-10-18T07:06:09.708Z,1.67
2022-10-18T07:08:40.798Z,1.39
2022-10-18T07:11:09.080Z,1.35
2022-10-18T07:13:37.259Z,1.45
2022-10-18T07:16:05.663Z,1.79
2022-10-18T07:18:39.951Z,1.64
2022-10-18T07:21:12.224Z,1.67
2022-10-18T07:23:41.198Z,2.15
2022-10-18T07:26:15.923Z,1.99
2022-10-18T07:28:46.406Z,2.19
2022-10-18T07:31:13.607Z,2.68
2022-10-18T07:33:42.302Z,2.59
2022-10-18T07:36:11.737Z,2.78
2022-10-18T07:38:39.653Z,2.95
2022-10-18T07:41:09.421Z,2.87
2022-10-18T07:43:36.986Z,3.06
2022-10-18T07:46:07.018Z,3.28
2022-10-18T07:48:35.215Z,3.35
2022-10-18T07:51:04.771Z,3.10
2022-10-18T07:53:32.890Z,3.41
2022-10-18T07:56:03.447Z,3.67
2022-10-18T07:58:33.788Z,3.73
2022-10-18T08:01:03.650Z,3.81
2022-10-18T08:03:30.970Z,3.96
2022-10-18T08:05:59.015Z,3.69
2022-10-18T08:08:28.910Z,3.49
2022-10-18T08:11:03.782Z,3.66
2022-10-18T08:13:30.707Z,3.68
2022-10-18T08:16:01.617Z,3.56
2022-10-18T08:18:28.476Z,3.36
2022-10-18T08:20:55.951Z,3.52
2022-10-18T08:23:23.073Z,3.43
2022-10-18T08:25:51.498Z,3.32
2022-10-18T08:28:19.412Z,3.77
2022-10-18T08:30:46.242Z,3.75
2022-10-18T08:33:14.524Z,3.48
2022-10-18T08:35:41.363Z,3.57
2022-10-18T08:38:09.188Z,3.74
2022-10-18T08:40:43.749Z,3.80
2022-10-18T08:43:22.699Z,3.72
2022-10-18T08:45:50.948Z,3.50
2022-10-18T08:48:21.385Z,3.58
2022-10-18T08:50:49.874Z,3.44
2022-10-18T08:53:23.442Z,3.59
2022-10-18T08:55:54.750Z,3.59
2022-10-18T08:58:25.410Z,3.76
2022-10-18T09:01:07.660Z,3.65
2022-10-18T09:03:57.454Z,3.51
2022-10-18T09:06:30.759Z,3.19
2022-10-18T09:09:18.075Z,3.76
2022-10-18T09:11:58.111Z,3.72
2022-10-18T09:14:52.687Z,3.92
2022-10-18T09:17:29.899Z,3.66
2022-10-18T09:20:17.000Z,3.70
2022-10-18T09:22:53.559Z,3.83
2022-10-18T09:25:22.375Z,3.98
2022-10-18T09:27:53.971Z,3.83
2022-10-18T09:30:49.289Z,3.73
2022-10-18T09:33:30.056Z,3.74
2022-10-18T09:35:58.923Z,3.52
2022-10-18T09:38:32.555Z,3.64
2022-10-18T09:41:04.641Z,3.90
2022-10-18T09:43:44.941Z,3.88
2022-10-18T09:46:18.109Z,3.81
2022-10-18T09:48:51.522Z,4.16
2022-10-18T09:51:23.960Z,3.74
2022-10-18T09:54:04.430Z,3.60
2022-10-18T09:56:41.894Z,3.67
2022-10-18T09:59:30.268Z,3.37
2022-10-18T10:01:58.796Z,3.13
2022-10-18T10:04:25.828Z,3.12
2022-10-18T10:06:55.553Z,3.24
2022-10-18T10:09:27.267Z,3.16
2022-10-18T10:11:54.270Z,3.31
2022-10-18T10:14:23.006Z,3.14
2022-10-18T10:16:55.056Z,2.91
2022-10-18T10:19:30.566Z,3.20
2022-10-18T10:22:03.795Z,3.50
2022-10-18T10:24:42.158Z,3.39
2022-10-18T10:27:18.932Z,3.30
2022-10-18T10:29:55.112Z,3.65
2022-10-18T10:34:59.183Z,3.28
2022-10-18T10:37:32.256Z,3.35
2022-10-18T10:40:18.190Z,3.20
2022-10-18T10:43:08.815Z,3.13
2022-10-18T10:46:00.158Z,3.19
2022-10-18T10:48:32.453Z,3.27
2022-10-18T10:51:05.024Z,3.22
2022-10-18T10:53:41.208Z,3.28
2022-10-18T10:56:21.734Z,3.26
2022-10-18T10:58:49.003Z,3.37
2022-10-18T11:01:22.516Z,3.45
2022-10-18T11:03:51.553Z,3.17
2022-10-18T11:06:50.196Z,3.53
2022-10-18T11:09:28.541Z,3.60
2022-10-18T11:12:16.619Z,3.55
2022-10-18T11:14:50.337Z,3.32
2022-10-18T11:17:28.127Z,3.17
2022-10-18T11:20:18.737Z,3.31
2022-10-18T11:22:58.039Z,3.27
2022-10-18T11:25:29.498Z,3.11
2022-10-18T11:28:03.213Z,3.08
2022-10-18T11:30:50.179Z,2.93
2022-10-18T11:33:50.329Z,2.90
2022-10-18T11:39:02.982Z,3.23
2022-10-18T11:41:31.759Z,3.09
2022-10-18T11:44:03.572Z,3.05
2022-10-18T11:46:45.257Z,3.11
2022-10-18T11:49:29.628Z,3.36
2022-10-18T11:52:09.175Z,3.05
2022-10-18T11:55:05.349Z,3.25
2022-10-18T11:57:46.464Z,2.86
2022-10-18T12:00:29.819Z,2.99
2022-10-18T12:03:41.933Z,2.80
2022-10-18T12:06:15.313Z,2.99
2022-10-18T12:08:47.083Z,2.88
2022-10-18T12:11:20.460Z,3.22
2022-10-18T12:13:51.115Z,3.41
2022-10-18T12:16:38.961Z,3.15
2022-10-18T12:19:22.009Z,3.01
2022-10-18T12:21:53.825Z,3.13
2022-10-18T12:24:24.802Z,3.17
2022-10-18T12:26:59.800Z,3.02
2022-10-18T12:29:32.900Z,3.28
2022-10-18T12:32:03.484Z,3.28
2022-10-18T12:34:35.940Z,3.10
2022-10-18T12:37:40.383Z,2.92
2022-10-18T12:40:18.242Z,2.85
2022-10-18T12:42:53.137Z,2.89
2022-10-18T12:45:30.079Z,3.12
2022-10-18T12:48:02.835Z,3.39
2022-10-18T12:50:32.831Z,3.11
2022-10-18T12:53:16.843Z,3.04
2022-10-18T12:55:45.277Z,3.21
2022-10-18T12:58:41.706Z,2.84
2022-10-18T13:01:08.801Z,2.56
2022-10-18T13:03:55.712Z,2.88
2022-10-18T13:06:25.082Z,2.72
2022-10-18T13:09:18.538Z,2.93
2022-10-18T13:11:45.582Z,3.14
2022-10-18T13:15:12.634Z,3.08
2022-10-18T13:17:50.768Z,3.13
2022-10-18T13:20:27.233Z,3.17
2022-10-18T13:23:10.964Z,3.05
2022-10-18T13:25:51.847Z,3.28
2022-10-18T13:28:30.830Z,3.15
2022-10-18T13:31:04.065Z,3.10
2022-10-18T13:33:34.248Z,3.08
2022-10-18T13:36:04.764Z,3.20
2022-10-18T13:38:44.101Z,3.23
2022-10-18T13:41:14.527Z,2.85
2022-10-18T13:44:20.040Z,2.94
2022-10-18T13:47:15.264Z,2.60
2022-10-18T13:49:59.599Z,2.59
2022-10-18T13:52:37.828Z,2.61
2022-10-18T13:55:25.884Z,2.66
2022-10-18T13:58:06.456Z,2.70
2022-10-18T14:01:02.391Z,2.88
2022-10-18T14:03:58.063Z,2.91
2022-10-18T14:06:28.957Z,2.78
2022-10-18T14:09:09.347Z,3.08
2022-10-18T14:11:50.284Z,3.31
2022-10-18T14:14:24.223Z,3.39
2022-10-18T14:17:03.136Z,3.61
2022-10-18T14:19:36.941Z,3.72
2022-10-18T14:22:11.576Z,3.45
2022-10-18T14:24:44.455Z,3.27
2022-10-18T14:27:18.224Z,3.65
2022-10-18T14:29:45.654Z,3.93
2022-10-18T14:32:23.944Z,3.56
2022-10-18T14:34:53.887Z,4.02
2022-10-18T14:37:28.046Z,4.18
2022-10-18T14:39:55.232Z,4.47
2022-10-18T14:42:23.950Z,4.30
2022-10-18T14:44:54.423Z,4.36
2022-10-18T14:47:24.839Z,3.99
2022-10-18T14:49:55.572Z,4.02
2022-10-18T14:52:26.632Z,4.26
2022-10-18T14:54:55.680Z,4.25
2022-10-18T14:57:25.177Z,4.33
2022-10-18T14:59:54.883Z,5.11
2022-10-18T15:02:23.852Z,4.71
2022-10-18T15:05:07.480Z,4.35
2022-10-18T15:07:35.338Z,4.51
2022-10-18T15:10:05.595Z,4.51
2022-10-18T15:12:40.886Z,4.42
2022-10-18T15:15:22.380Z,4.81
2022-10-18T15:17:49.917Z,4.61
2022-10-18T15:20:26.975Z,4.49
2022-10-18T15:23:15.244Z,4.45
2022-10-18T15:25:42.352Z,4.53
2022-10-18T15:28:24.585Z,4.44
2022-10-18T15:30:51.483Z,4.86
2022-10-18T15:33:22.458Z,5.07
2022-10-18T15:35:52.693Z,5.15
2022-10-18T15:38:26.842Z,5.49
2022-10-18T15:40:53.917Z,5.17
2022-10-18T15:43:39.089Z,4.98
2022-10-18T15:46:07.443Z,5.23
2022-10-18T15:48:38.210Z,5.01
2022-10-18T15:51:08.345Z,4.62
2022-10-18T15:53:43.230Z,4.19
2022-10-18T15:56:28.128Z,3.91
2022-10-18T15:58:57.945Z,3.76
2022-10-18T16:01:34.628Z,3.50
2022-10-18T16:04:07.210Z,3.40
2022-10-18T16:06:35.516Z,3.37
2022-10-18T16:09:02.399Z,3.92
2022-10-18T16:11:29.346Z,3.96
2022-10-18T16:13:58.008Z,2.92
2022-10-18T16:16:28.483Z,2.71
2022-10-18T16:18:57.044Z,2.30
2022-10-18T16:21:26.495Z,2.15
2022-10-18T16:23:55.176Z,2.17
2022-10-18T16:26:23.490Z,1.99
2022-10-18T16:28:51.500Z,1.72
2022-10-18T16:31:21.681Z,1.54
2022-10-18T16:33:56.533Z,1.33
2022-10-18T16:36:27.363Z,1.08
2022-10-18T16:39:05.748Z,1.09
2022-10-18T16:41:34.852Z,1.05
2022-10-18T16:44:02.007Z,0.94
2022-10-18T16:46:33.408Z,0.91
2022-10-18T16:49:01.155Z,0.85
2022-10-18T16:51:30.205Z,0.68
2022-10-18T16:53:58.384Z,0.74
2022-10-18T16:56:32.505Z,0.70
2022-10-18T16:59:00.351Z,0.65
2022-10-18T17:01:30.981Z,0.97
2022-10-18T17:03:57.930Z,0.75
2022-10-18T17:06:27.149Z,1.07
2022-10-18T17:08:56.577Z,1.05
2022-10-18T17:11:27.521Z,1.20
2022-10-18T17:13:54.997Z,1.21
2022-10-18T17:16:24.720Z,0.93
2022-10-18T17:18:51.634Z,1.09
2022-10-18T17:21:18.578Z,0.97
2022-10-18T17:23:45.730Z,0.81
2022-10-18T17:26:27.651Z,0.73
2022-10-18T17:29:00.744Z,0.58
2022-10-18T17:31:27.675Z,0.56
2022-10-18T17:33:55.687Z,0.60
2022-10-18T17:36:22.674Z,0.50
2022-10-18T17:38:50.835Z,0.46
2022-10-18T17:41:18.461Z,0.38
2022-10-18T17:43:47.730Z,0.38
2022-10-18T17:46:16.688Z,0.55
2022-10-18T17:48:44.070Z,0.56
2022-10-18T17:51:12.437Z,0.64
2022-10-18T17:53:39.701Z,0.68
2022-10-18T17:56:09.605Z,0.60
2022-10-18T17:58:36.370Z,0.79
2022-10-18T18:01:11.679Z,1.78
2022-10-18T18:03:41.379Z,2.25
2022-10-18T18:06:16.750Z,1.88
2022-10-18T18:11:10.248Z,2.63
2022-10-18T18:13:37.068Z,4.66
2022-10-18T18:16:17.296Z,2.86
2022-10-18T18:18:48.915Z,1.67
2022-10-18T18:21:16.210Z,1.28
2022-10-18T18:23:43.401Z,1.33
2022-10-18T18:26:12.551Z,1.53
2022-10-18T18:28:39.453Z,1.16
2022-10-18T18:31:07.265Z,0.95
2022-10-18T18:33:34.155Z,0.69
2022-10-18T18:36:05.441Z,0.66
2022-10-18T18:38:34.742Z,0.65
2022-10-18T18:41:11.119Z,0.75
2022-10-18T18:43:39.835Z,0.72
2022-10-18T18:46:09.019Z,0.94
2022-10-18T18:48:36.997Z,0.84
2022-10-18T18:51:11.126Z,0.68
2022-10-18T18:56:08.449Z,0.75
2022-10-18T18:58:37.755Z,0.58
2022-10-18T19:01:09.571Z,0.49
2022-10-18T19:03:41.246Z,0.43
2022-10-18T19:06:11.453Z,0.42
2022-10-18T19:08:41.179Z,0.41
2022-10-18T19:11:15.207Z,0.70
2022-10-18T19:13:43.667Z,1.47
2022-10-18T19:16:18.760Z,1.01
2022-10-18T19:18:51.295Z,0.94
2022-10-18T19:21:20.124Z,0.84
2022-10-18T19:23:47.029Z,1.08
2022-10-18T19:26:22.994Z,0.76
2022-10-18T19:28:49.958Z,0.60
2022-10-18T19:31:16.887Z,0.99
2022-10-18T19:33:55.660Z,0.87
2022-10-18T19:36:28.503Z,0.81
2022-10-18T19:38:56.835Z,0.94
2022-10-18T19:43:58.724Z,0.73
2022-10-18T19:46:28.951Z,0.80
2022-10-18T19:48:56.149Z,0.87
2022-10-18T19:51:28.461Z,0.65
2022-10-18T19:53:58.808Z,0.68
2022-10-18T19:56:28.473Z,1.33
2022-10-18T19:58:58.592Z,1.01
2022-10-18T20:01:28.505Z,0.68
2022-10-18T20:03:55.830Z,0.64
2022-10-18T20:06:27.513Z,0.53
2022-10-18T20:08:55.482Z,0.73
2022-10-18T20:11:28.206Z,0.62
2022-10-18T20:13:56.260Z,0.82
2022-10-18T20:16:32.091Z,0.58
2022-10-18T20:19:00.736Z,0.64
2022-10-18T20:21:29.794Z,0.53
2022-10-18T20:23:57.020Z,0.57
2022-10-18T20:26:27.839Z,0.71
2022-10-18T20:28:58.317Z,0.62
2022-10-18T20:31:29.130Z,0.62
2022-10-18T20:33:57.812Z,0.79
2022-10-18T20:36:30.781Z,0.73
2022-10-18T20:38:58.781Z,0.77
2022-10-18T20:41:29.261Z,0.88
2022-10-18T20:43:58.999Z,0.85
2022-10-18T20:46:26.944Z,0.76
2022-10-18T20:48:55.498Z,0.95
2022-10-18T20:51:24.026Z,0.83
2022-10-18T20:53:51.626Z,1.07
2022-10-18T20:56:20.894Z,0.96
2022-10-18T20:58:50.582Z,0.76
2022-10-18T21:01:19.490Z,0.64
2022-10-18T21:03:49.117Z,0.79
2022-10-18T21:06:18.245Z,1.08
2022-10-18T21:08:46.536Z,1.55
2022-10-18T21:11:14.372Z,1.49
2022-10-18T21:13:42.869Z,1.35
2022-10-18T21:16:11.696Z,1.21
2022-10-18T21:18:38.725Z,0.83
2022-10-18T21:21:11.119Z,0.73
2022-10-18T21:23:38.603Z,0.71
2022-10-18T21:26:06.079Z,0.75
2022-10-18T21:28:35.495Z,0.64
2022-10-18T21:31:16.703Z,0.74
2022-10-18T21:33:45.014Z,0.97
2022-10-18T21:36:13.351Z,0.85
2022-10-18T21:38:43.815Z,0.59
2022-10-18T21:41:12.042Z,0.71
2022-10-18T21:43:40.462Z,0.52
2022-10-18T21:46:13.483Z,0.38
2022-10-18T21:48:45.787Z,0.46
2022-10-18T21:51:18.033Z,0.38
2022-10-18T21:53:48.056Z,0.59
2022-10-18T21:56:21.346Z,0.48
2022-10-18T21:58:49.655Z,1.37
2022-10-18T22:01:18.536Z,1.04
2022-10-18T22:03:49.644Z,1.26
2022-10-18T22:06:21.358Z,1.11
2022-10-18T22:08:51.389Z,0.78
2022-10-18T22:11:23.173Z,0.81
2022-10-18T22:13:50.000Z,0.53
2022-10-18T22:16:18.593Z,0.68
2022-10-18T22:18:48.196Z,0.71
2022-10-18T22:21:18.947Z,0.57
2022-10-18T22:23:48.349Z,0.90
2022-10-18T22:26:18.647Z,0.62
2022-10-18T22:28:53.091Z,0.46
2022-10-18T22:31:31.771Z,0.43
2022-10-18T22:34:03.074Z,0.84
2022-10-18T22:36:31.006Z,0.77
2022-10-18T22:39:01.142Z,0.74
2022-10-18T22:41:30.413Z,0.87
2022-10-18T22:44:01.108Z,0.95
2022-10-18T22:46:32.498Z,0.71
2022-10-18T22:49:00.935Z,0.61
2022-10-18T22:51:31.389Z,1.44
2022-10-18T22:53:58.660Z,1.02
2022-10-18T22:56:26.309Z,1.03
2022-10-18T22:58:53.164Z,0.76
2022-10-18T23:01:22.152Z,0.59
2022-10-18T23:03:54.614Z,0.56
2022-10-18T23:06:25.124Z,0.54
2022-10-18T23:08:54.267Z,0.61
2022-10-18T23:11:23.063Z,0.85
2022-10-18T23:13:52.603Z,0.64
2022-10-18T23:16:20.584Z,0.51
2022-10-18T23:18:49.807Z,1.13
2022-10-18T23:21:16.620Z,0.84
2022-10-18T23:23:47.087Z,1.45
2022-10-18T23:26:17.222Z,0.93
2022-10-18T23:28:47.535Z,0.68
2022-10-18T23:31:16.584Z,0.63
2022-10-18T23:33:45.661Z,0.86
2022-10-18T23:36:12.849Z,0.73
2022-10-18T23:38:45.529Z,0.53
2022-10-18T23:41:14.359Z,0.76
2022-10-18T23:43:42.050Z,0.59
2022-10-18T23:46:13.742Z,0.50
2022-10-18T23:48:40.884Z,0.70
2022-10-18T23:51:11.089Z,1.06
2022-10-18T23:53:38.539Z,1.00
2022-10-18T23:56:10.508Z,1.09
2022-10-18T23:58:37.997Z,1.09
